Time;durP1;ratioP1;P1;durP2;ratioP2;P2;SDS_P1;SDS_P2;PMS_P1;PMS_P2;Temp;Humidity;BMP_temperature;BMP_pressure;BME280_temperature;BME280_humidity;BME280_pressure;Samples;Min_cycle;Max_cycle;Signal;HPM_P1;HPM_P2
2023/10/10 00:00:49;;;;;;;23.20;18.60;;;18.90;99.90;;;19.45;98.00;101960.66;5072263;28;20041;-79
2023/10/10 00:03:20;;;;;;;20.77;17.85;;;18.90;99.90;;;19.46;97.98;101959.75;5072309;28;20049;-79
2023/10/10 00:05:49;;;;;;;21.10;18.33;;;18.90;99.90;;;18.92;97.70;101873.34;5072223;28;20075;-78
2023/10/10 00:08:23;;;;;;;22.45;17.90;;;18.90;99.90;;;19.46;98.03;101965.09;5071983;28;20079;-78
2023/10/10 00:10:51;;;;;;;25.98;19.65;;;18.90;99.90;;;19.47;98.14;101961.53;5072264;28;20147;-79
2023/10/10 00:13:20;;;;;;;28.20;22.23;;;18.90;99.90;;;19.39;98.19;101945.59;5076601;28;20127;-78
2023/10/10 00:15:55;;;;;;;24.88;20.75;;;18.90;99.90;;;19.48;98.42;101957.91;5075947;28;20040;-77
2023/10/10 00:18:24;;;;;;;28.40;21.55;;;18.90;99.90;;;19.39;98.35;101942.91;5075898;28;20048;-79
2023/10/10 00:21:06;;;;;;;25.50;20.00;;;19.00;99.90;;;19.52;98.33;101959.59;5076122;28;20040;-78
2023/10/10 00:23:47;;;;;;;28.70;19.98;;;19.00;99.90;;;19.48;98.18;101953.44;5075888;28;20122;-77
2023/10/10 00:26:16;;;;;;;26.08;19.80;;;19.00;99.90;;;19.47;98.29;101954.31;5075988;28;20436;-79
2023/10/10 00:28:53;;;;;;;30.35;22.42;;;19.00;99.90;;;19.45;98.44;101961.53;5074514;28;20056;-78
2023/10/10 00:31:22;;;;;;;32.33;23.02;;;18.90;99.90;;;19.47;98.67;101951.63;5075559;28;20052;-77
2023/10/10 00:33:52;;;;;;;31.13;24.35;;;19.00;99.90;;;19.51;98.74;101958.72;5075560;28;20094;-78
2023/10/10 00:36:31;;;;;;;31.63;23.63;;;19.00;99.90;;;19.46;98.64;101949.00;5075335;28;20044;-78
2023/10/10 00:39:06;;;;;;;36.03;23.00;;;18.90;99.90;;;19.43;98.72;101946.41;5058488;28;20045;-77
2023/10/10 00:41:44;;;;;;;34.45;22.10;;;18.90;99.90;;;19.43;98.73;101949.09;5075381;28;20044;-78
2023/10/10 00:44:15;;;;;;;23.23;19.80;;;18.90;99.90;;;19.45;98.97;101942.75;5075478;28;20083;-78
2023/10/10 00:46:47;;;;;;;24.92;19.08;;;19.00;99.90;;;19.44;98.95;101946.38;5074513;28;20054;-77
2023/10/10 00:49:17;;;;;;;23.10;18.40;;;19.00;99.90;;;19.44;98.43;101945.47;5075785;28;20078;-79
2023/10/10 00:51:47;;;;;;;22.35;17.60;;;18.90;99.90;;;19.44;98.47;101942.78;5075347;28;20036;-78
2023/10/10 00:54:27;;;;;;;20.27;16.67;;;18.90;99.90;;;19.40;98.40;101938.41;5075549;28;20547;-77
2023/10/10 00:56:58;;;;;;;19.75;15.25;;;18.90;99.90;;;19.35;98.54;101941.22;5075291;28;20041;-78
2023/10/10 00:59:32;;;;;;;17.15;14.20;;;18.90;99.90;;;19.34;98.37;101941.22;5075133;28;20379;-78
2023/10/10 01:02:04;;;;;;;18.60;11.32;;;18.80;99.90;;;19.34;97.81;101935.88;5075425;28;20036;-77
2023/10/10 01:04:39;;;;;;;12.52;11.23;;;18.80;99.90;;;19.32;97.16;101933.22;5059552;28;20425;-77
2023/10/10 01:07:08;;;;;;;18.92;13.10;;;18.80;99.90;;;19.22;97.36;101928.94;5070745;28;20056;-77
2023/10/10 01:09:51;;;;;;;21.53;16.53;;;18.80;99.90;;;19.18;97.84;101931.75;5068603;28;20044;-78
2023/10/10 01:12:20;;;;;;;14.50;12.82;;;18.70;99.90;;;19.12;97.97;101927.41;5075165;28;20044;-76
2023/10/10 01:14:54;;;;;;;13.35;12.05;;;18.70;99.90;;;19.12;98.15;101929.22;5075154;28;20512;-77
2023/10/10 01:17:29;;;;;;;14.00;12.43;;;18.60;99.90;;;19.18;98.14;101926.38;5075123;28;20070;-77
2023/10/10 01:20:09;;;;;;;14.23;12.73;;;18.70;99.90;;;19.25;98.05;101926.22;5075055;28;20501;-77
2023/10/10 01:22:40;;;;;;;;;;;18.70;99.90;;;19.25;97.77;101918.16;5087519;28;20057;-77
2023/10/10 01:27:58;;;;;;;28.75;22.70;;;18.80;99.90;;;19.27;97.05;101910.06;5073659;28;20055;-78
2023/10/10 01:33:13;;;;;;;30.83;24.25;;;18.80;99.90;;;19.28;97.64;101906.50;5069113;28;20041;-77
2023/10/10 01:35:42;;;;;;;31.85;23.30;;;18.80;99.90;;;19.34;97.50;101907.25;5071495;28;20043;-78
2023/10/10 01:38:38;;;;;;;24.00;18.60;;;18.80;99.90;;;19.35;96.61;101898.28;5073856;28;20076;-78
2023/10/10 01:41:15;;;;;;;11.23;8.52;;;18.80;99.90;;;19.05;94.41;101895.41;5074466;28;20441;-78
2023/10/10 01:43:46;;;;;;;13.40;10.50;;;18.60;99.90;;;18.96;94.26;101898.28;5074123;28;20126;-78
2023/10/10 01:46:27;;;;;;;13.55;9.55;;;18.40;99.90;;;18.89;94.68;101900.22;5074097;28;20098;-77
2023/10/10 01:48:57;;;;;;;23.80;19.63;;;18.40;99.90;;;18.91;95.38;101891.22;5074568;28;20040;-79
2023/10/10 01:51:28;;;;;;;23.75;19.75;;;18.40;99.90;;;18.95;96.62;101886.66;5074418;28;20053;-78
2023/10/10 01:53:58;;;;;;;24.88;20.20;;;18.40;99.90;;;18.26;97.32;101765.78;5074499;28;20044;-79
2023/10/10 01:56:27;;;;;;;20.83;17.30;;;18.40;99.90;;;18.97;97.77;101878.59;5073782;28;20140;-77
2023/10/10 01:58:56;;;;;;;17.42;15.63;;;18.50;99.90;;;18.77;97.07;101850.44;5073435;28;20309;-78
2023/10/10 02:01:27;;;;;;;23.92;19.13;;;18.40;99.90;;;18.86;97.61;101873.47;5087656;28;20064;-76
2023/10/10 02:03:55;;;;;;;23.58;19.10;;;18.40;99.90;;;18.85;97.94;101879.75;5073893;28;20095;-79
2023/10/10 02:06:25;;;;;;;19.88;17.30;;;18.40;99.90;;;18.83;97.44;101877.09;5073597;28;20048;-79
2023/10/10 02:08:56;;;;;;;18.23;16.30;;;18.40;99.90;;;18.78;97.30;101872.75;5073764;28;20036;-79
2023/10/10 02:11:26;;;;;;;18.20;15.65;;;18.30;99.90;;;18.75;97.62;101870.16;5073579;28;20119;-78
2023/10/10 02:13:58;;;;;;;23.67;17.60;;;18.30;99.90;;;18.71;98.19;101871.13;5074015;28;20072;-76
2023/10/10 02:16:35;;;;;;;18.98;16.77;;;18.20;99.90;;;18.66;98.18;101860.50;5073764;28;20044;-78
2023/10/10 02:19:15;;;;;;;27.35;17.15;;;18.20;99.90;;;18.64;98.67;101873.03;5073764;28;20051;-79
2023/10/10 02:21:48;;;;;;;22.58;17.67;;;18.20;99.90;;;18.62;98.70;101868.66;5073070;28;20446;-79
2023/10/10 02:24:38;;;;;;;25.27;21.75;;;18.10;99.90;;;18.65;99.31;101866.78;5073117;28;20052;-77
2023/10/10 02:27:12;;;;;;;27.15;24.02;;;18.20;99.90;;;18.67;99.67;101870.31;5073684;28;20375;-77
2023/10/10 02:29:48;;;;;;;38.83;30.75;;;18.20;99.90;;;18.77;100.00;101866.53;5085632;28;20126;-78
2023/10/10 02:32:20;;;;;;;39.85;30.73;;;18.30;99.90;;;18.79;100.00;101855.75;5064582;28;20106;-76
2023/10/10 02:34:56;;;;;;;42.70;30.23;;;18.30;99.90;;;18.65;99.90;101820.34;5072897;28;20049;-79
2023/10/10 02:40:15;;;;;;;52.88;35.00;;;18.40;99.90;;;18.87;99.78;101851.97;5066481;28;20102;-78
2023/10/10 02:42:50;;;;;;;50.63;34.67;;;18.40;99.90;;;18.85;99.99;101840.41;5070162;28;20041;-78
2023/10/10 02:45:28;;;;;;;50.35;34.08;;;18.40;99.90;;;18.85;100.00;101840.41;5073143;28;20102;-78
2023/10/10 02:47:56;;;;;;;52.60;35.97;;;18.40;99.90;;;18.83;99.72;101839.56;5073561;28;20129;-78
2023/10/10 02:50:40;;;;;;;55.58;37.22;;;18.40;99.90;;;18.89;99.44;101842.09;5072153;28;20060;-78
2023/10/10 02:53:09;;;;;;;52.80;36.25;;;18.40;99.90;;;18.90;99.15;101851.91;5059024;28;20057;-77
2023/10/10 02:55:41;;;;;;;37.47;24.40;;;18.40;99.90;;;19.04;97.65;101845.34;5072941;28;20040;-78
2023/10/10 02:58:20;;;;;;;40.55;27.30;;;18.50;99.90;;;18.30;95.43;101739.81;5071603;28;20044;-77
2023/10/10 03:00:57;;;;;;;41.92;30.58;;;18.50;99.90;;;18.80;96.31;101841.44;5056767;28;20505;-76
2023/10/10 03:03:25;;;;;;;49.88;32.65;;;18.40;99.90;;;18.67;97.25;101842.63;5071844;28;20067;-78
2023/10/10 03:05:55;;;;;;;43.72;31.20;;;18.30;99.90;;;18.65;98.19;101845.34;5071836;28;20440;-77
2023/10/10 03:08:37;;;;;;;37.97;28.45;;;18.20;99.90;;;18.64;98.46;101845.38;5072977;28;20041;-79
2023/10/10 03:11:14;;;;;;;39.10;26.98;;;18.20;99.90;;;18.65;98.55;101844.44;5073081;28;20051;-79
2023/10/10 03:13:53;;;;;;;40.60;28.88;;;18.20;99.90;;;18.61;98.35;101849.00;5073286;28;20041;-78
2023/10/10 03:19:25;;;;;;;37.15;26.73;;;18.10;99.90;;;18.57;98.40;101825.88;5071712;28;20052;-77
2023/10/10 03:22:20;;;;;;;38.60;28.80;;;18.10;99.90;;;18.53;98.02;101832.19;5071297;28;20048;-77
2023/10/10 03:25:08;;;;;;;43.65;30.60;;;18.10;99.90;;;18.58;97.79;101832.13;5057567;28;20051;-77
2023/10/10 03:27:54;;;;;;;44.42;32.15;;;18.10;99.90;;;18.61;97.77;101824.88;5067594;28;20048;-77
2023/10/10 03:30:50;;;;;;;43.88;32.35;;;18.20;99.90;;;18.69;97.88;101833.66;5055252;28;20596;-76
2023/10/10 03:33:37;;;;;;;44.85;32.30;;;18.20;99.90;;;18.72;97.86;101825.50;5068084;28;20075;-78
2023/10/10 03:36:14;;;;;;;48.00;32.80;;;18.30;99.90;;;18.63;97.82;101803.41;5071298;28;20044;-78
2023/10/10 03:39:06;;;;;;;45.97;32.72;;;18.30;99.90;;;18.78;97.63;101822.69;5071470;28;20095;-78
2023/10/10 05:24:12;;;;;;;46.13;36.05;;;17.30;99.90;;;17.65;100.00;101728.66;5074603;28;20366;-77
2023/10/10 05:26:47;;;;;;;46.22;37.35;;;17.30;99.90;;;17.70;100.00;101728.59;5058408;28;20040;-77
2023/10/10 05:29:19;;;;;;;49.33;37.70;;;17.30;99.90;;;17.75;99.94;101737.44;5074673;28;20123;-78
2023/10/10 05:31:51;;;;;;;49.83;37.75;;;17.30;99.90;;;17.78;99.63;101723.97;5074617;28;20044;-78
2023/10/10 05:34:20;;;;;;;56.03;39.13;;;17.40;99.90;;;17.77;99.30;101715.03;5074570;28;20113;-75
2023/10/10 05:36:49;;;;;;;50.85;37.85;;;17.40;99.90;;;17.87;99.14;101713.06;5069991;28;20056;-77
2023/10/10 05:39:21;;;;;;;56.60;39.88;;;17.40;99.90;;;17.92;98.51;101716.53;5065209;28;20048;-75
2023/10/10 05:41:54;;;;;;;58.80;38.75;;;17.50;99.90;;;17.94;98.17;101712.03;5069729;28;20053;-78
2023/10/10 05:44:23;;;;;;;54.17;39.22;;;17.50;99.90;;;17.91;98.11;101720.13;5057879;28;20078;-77
2023/10/10 05:46:53;;;;;;;59.45;39.28;;;17.50;99.90;;;17.94;98.24;101717.41;5074721;28;20045;-79
2023/10/10 05:49:22;;;;;;;52.97;40.22;;;17.60;99.90;;;17.95;98.01;101719.16;5074101;28;20135;-76
2023/10/10 05:51:51;;;;;;;55.67;40.47;;;17.60;99.90;;;17.83;98.09;101714.94;5074120;28;20055;-75
2023/10/10 05:54:21;;;;;;;56.65;41.70;;;17.50;99.90;;;17.78;98.60;101710.59;5074567;28;20044;-77
2023/10/10 05:56:51;;;;;;;60.42;41.92;;;17.50;99.90;;;17.61;99.62;101705.59;5072778;28;20092;-76
2023/10/10 05:59:23;;;;;;;64.75;43.75;;;17.40;99.90;;;17.67;99.69;101704.56;5074165;28;20045;-78
2023/10/10 06:01:53;;;;;;;62.92;43.45;;;17.40;99.90;;;17.24;99.60;101634.06;5072871;28;20049;-76
2023/10/10 06:04:21;;;;;;;54.38;41.03;;;17.40;99.90;;;17.63;99.37;101702.88;5074385;28;20125;-77
2023/10/10 06:06:52;;;;;;;60.47;42.15;;;17.40;99.90;;;17.65;99.50;101704.59;5073884;28;20449;-78
2023/10/10 06:09:26;;;;;;;56.60;41.20;;;17.40;99.90;;;17.73;99.45;101702.63;5072787;28;20048;-77
2023/10/10 06:12:03;;;;;;;60.08;41.03;;;17.40;99.90;;;17.75;99.36;101703.50;5073684;28;20045;-78
2023/10/10 06:14:32;;;;;;;57.28;39.70;;;17.40;99.90;;;17.78;98.98;101706.13;5069302;28;20045;-78
2023/10/10 06:17:01;;;;;;;57.63;40.55;;;17.40;99.90;;;17.77;99.10;101706.13;5066336;28;20111;-78
2023/10/10 06:19:29;;;;;;;59.50;40.30;;;17.40;99.90;;;17.80;99.01;101701.63;5072901;28;20123;-76
2023/10/10 06:22:02;;;;;;;59.83;39.67;;;17.40;99.90;;;17.82;98.65;101698.91;5073533;28;20052;-76
2023/10/10 06:24:33;;;;;;;55.83;39.88;;;17.50;99.90;;;17.92;98.31;101700.47;5073537;28;20044;-77
2023/10/10 06:27:03;;;;;;;51.75;38.92;;;17.50;99.90;;;17.95;98.14;101692.38;5072811;28;20444;-77
2023/10/10 06:29:34;;;;;;;56.20;40.65;;;17.50;99.90;;;17.98;97.88;101687.81;5072914;28;20393;-77
2023/10/10 06:32:03;;;;;;;56.78;41.83;;;17.60;99.90;;;17.93;97.55;101680.81;5072780;28;20406;-76
2023/10/10 06:34:35;;;;;;;57.45;41.58;;;17.60;99.90;;;18.12;97.63;101698.25;5072929;28;20425;-76
2023/10/10 06:37:07;;;;;;;59.65;42.72;;;17.70;99.90;;;18.18;97.21;101700.78;5073232;28;20433;-74
2023/10/10 06:39:53;;;;;;;63.63;42.22;;;17.70;99.90;;;18.21;96.85;101698.06;5072863;28;20075;-76
2023/10/10 06:42:28;;;;;;;54.90;41.78;;;17.80;99.90;;;18.28;96.85;101705.03;5068841;28;20060;-75
2023/10/10 06:45:07;;;;;;;54.45;41.90;;;17.80;99.90;;;18.35;96.53;101692.38;5071903;28;20044;-76
2023/10/10 06:47:39;;;;;;;52.92;40.08;;;17.90;99.90;;;18.40;96.19;101704.75;5072998;28;20053;-76
2023/10/10 06:50:10;;;;;;;57.50;41.28;;;18.00;99.90;;;18.48;96.22;101701.91;5072790;28;20401;-77
2023/10/10 06:52:43;;;;;;;57.58;39.80;;;18.10;99.90;;;18.57;95.92;101707.94;5073051;28;20114;-77
2023/10/10 06:55:12;;;;;;;57.90;40.92;;;18.10;99.90;;;18.66;95.62;101705.03;5072807;28;20044;-75
2023/10/10 06:57:45;;;;;;;53.08;40.25;;;18.20;99.90;;;18.76;95.33;101705.69;5073134;28;20055;-76
2023/10/10 07:00:27;;;;;;;51.88;40.65;;;18.30;99.90;;;18.82;94.90;101706.44;5073046;28;20045;-77
2023/10/10 07:02:56;;;;;;;62.47;41.90;;;18.40;99.90;;;18.87;94.65;101706.31;5069701;28;20074;-76
2023/10/10 07:05:27;;;;;;;62.53;43.78;;;18.50;99.90;;;18.94;94.45;101713.28;5072228;28;20154;-78
2023/10/10 07:07:59;;;;;;;55.50;42.00;;;18.50;99.90;;;18.99;94.14;101705.13;5072643;28;20080;-81
2023/10/10 07:10:35;;;;;;;61.50;44.30;;;18.50;99.90;;;19.07;93.73;101703.09;5072284;28;20053;-74
2023/10/10 07:13:11;;;;;;;61.65;44.10;;;18.60;99.90;;;19.09;93.55;101702.16;5072133;28;20055;-73
2023/10/10 07:15:41;;;;;;;61.35;45.65;;;18.70;99.90;;;19.15;93.52;101701.13;5072483;28;20044;-75
2023/10/10 07:18:14;;;;;;;55.92;43.25;;;18.70;99.90;;;19.18;93.87;101693.00;5072471;28;20045;-74
2023/10/10 07:23:42;;;;;;;63.72;46.13;;;18.80;99.90;;;19.41;94.21;101702.22;5072542;28;20040;-77
2023/10/10 07:26:19;;;;;;;63.05;46.22;;;19.00;99.90;;;19.42;94.07;101700.41;5072281;28;20043;-76
2023/10/10 07:28:53;;;;;;;63.05;47.08;;;19.00;99.90;;;19.52;93.66;101702.81;5070960;28;20048;-79
2023/10/10 07:31:25;;;;;;;59.25;43.63;;;19.10;99.90;;;19.52;93.12;101697.44;5072072;28;20566;-75
2023/10/10 07:33:55;;;;;;;63.22;44.60;;;19.10;99.90;;;19.56;92.94;101699.13;5072452;28;20049;-76
2023/10/10 07:36:28;;;;;;;59.50;43.70;;;19.10;99.90;;;19.64;92.69;101706.94;5071425;28;20097;-75
2023/10/10 07:41:44;;;;;;;59.80;43.92;;;19.20;99.90;;;19.66;92.54;101708.69;5072776;28;20048;-79
2023/10/10 07:44:16;;;;;;;58.88;43.85;;;19.20;99.90;;;19.70;92.50;101704.09;5072357;28;20409;-75
2023/10/10 07:47:19;;;;;;;55.05;42.38;;;19.30;99.90;;;19.71;92.32;101708.53;5072361;28;20068;-74
2023/10/10 07:49:40;;;;;;;53.47;42.92;;;19.30;99.90;;;19.79;92.44;101706.50;5072113;28;20051;-76
2023/10/10 07:52:16;;;;;;;;;;;19.40;99.90;;;19.87;92.52;101709.84;5072749;28;20056;-76
2023/10/10 07:54:46;;;;;;;57.65;43.08;;;19.50;99.90;;;20.02;92.66;101709.41;5072377;28;20007;-74
2023/10/10 07:57:18;;;;;;;57.78;43.70;;;19.60;99.90;;;20.18;92.30;101710.75;5072381;28;20041;-74
2023/10/10 07:59:48;;;;;;;55.33;44.15;;;19.70;99.90;;;20.29;91.35;101711.28;5072195;28;20114;-74
2023/10/10 08:02:31;;;;;;;56.58;41.97;;;19.90;99.90;;;20.45;91.06;101735.88;5072383;28;20053;-74
2023/10/10 08:05:09;;;;;;;55.78;42.50;;;20.00;99.90;;;20.53;90.44;101715.91;5072182;28;20072;-74
2023/10/10 08:07:38;;;;;;;55.33;42.10;;;20.10;99.90;;;20.64;89.78;101715.53;5071895;28;20040;-74
2023/10/10 08:10:14;;;;;;;56.95;41.17;;;20.20;99.90;;;20.67;89.28;101719.00;5087029;28;20399;-75
2023/10/10 08:12:43;;;;;;;54.88;41.13;;;20.30;99.90;;;20.67;88.67;101727.06;5072102;28;20400;-75
2023/10/10 08:15:25;;;;;;;57.63;42.88;;;20.30;99.90;;;20.78;88.76;101723.16;5071511;28;20390;-74
2023/10/10 08:17:58;;;;;;;52.40;40.00;;;20.30;99.90;;;20.84;88.38;101728.34;5071852;28;20059;-75
2023/10/10 08:20:34;;;;;;;56.75;40.97;;;20.40;99.90;;;20.84;87.63;101731.03;5071270;28;20049;-75
2023/10/10 08:23:04;;;;;;;57.92;41.70;;;20.40;99.90;;;20.88;87.44;101721.94;5071311;28;20051;-75
2023/10/10 08:25:33;;;;;;;52.35;40.33;;;20.50;99.90;;;20.96;87.77;101723.47;5071556;28;20053;-75
2023/10/10 08:28:02;;;;;;;53.65;40.60;;;20.60;99.90;;;21.28;87.54;101722.38;5055494;28;20542;-75
2023/10/10 08:30:33;;;;;;;54.88;40.90;;;20.80;99.90;;;21.48;87.10;101718.06;5071045;28;20057;-75
2023/10/10 08:33:02;;;;;;;57.92;41.05;;;21.10;99.90;;;21.58;85.81;101730.22;5073345;28;20052;-74
2023/10/10 08:35:38;;;;;;;50.05;38.83;;;21.20;99.90;;;21.74;85.09;101719.78;5075075;28;20139;-74
2023/10/10 08:38:08;;;;;;;53.38;38.25;;;21.40;99.90;;;21.79;83.61;101720.50;5075864;28;20044;-74
2023/10/10 08:40:40;;;;;;;49.13;37.47;;;21.40;99.90;;;21.92;83.13;101724.53;5075207;28;20056;-74
2023/10/10 08:43:10;;;;;;;51.70;38.08;;;21.50;99.90;;;22.10;82.86;101721.16;5075418;28;20449;-74
2023/10/10 08:45:43;;;;;;;52.08;37.65;;;21.70;99.90;;;22.10;81.26;101723.84;5074959;28;20048;-73
2023/10/10 08:48:16;;;;;;;44.45;34.85;;;21.70;99.90;;;22.06;80.43;101726.72;5075354;28;20068;-75
2023/10/10 08:50:45;;;;;;;48.63;35.85;;;21.70;99.90;;;22.10;80.67;101725.66;5070433;28;20482;-74
2023/10/10 08:53:15;;;;;;;44.70;34.50;;;21.70;99.90;;;22.20;80.50;101721.69;5072457;28;20045;-74
2023/10/10 08:55:48;;;;;;;49.15;36.45;;;21.80;99.90;;;22.26;80.17;101733.09;5074012;28;20055;-74
2023/10/10 08:58:18;;;;;;;46.17;36.00;;;21.80;99.90;;;22.33;79.96;101720.25;5070645;28;20501;-74
2023/10/10 09:00:49;;;;;;;49.65;35.88;;;22.00;99.90;;;22.33;79.69;101720.25;5069257;28;20044;-74
2023/10/10 09:03:18;;;;;;;47.97;34.33;;;21.90;99.90;;;22.34;79.75;101719.28;5075434;28;20049;-74
2023/10/10 09:05:47;;;;;;;45.95;36.15;;;21.90;99.90;;;22.45;79.35;101717.94;5074972;28;20367;-75
2023/10/10 09:08:16;;;;;;;45.08;35.70;;;22.00;99.90;;;22.67;79.08;101715.28;5074862;28;20049;-73
2023/10/10 09:10:46;;;;;;;45.00;36.35;;;22.20;99.90;;;22.76;78.75;101714.06;5074905;28;20044;-75
2023/10/10 09:13:16;;;;;;;45.63;35.55;;;22.30;99.90;;;22.85;78.67;101721.75;5074897;28;20044;-74
2023/10/10 09:15:56;;;;;;;42.83;34.88;;;22.40;99.90;;;22.97;78.07;101699.66;5075165;28;20059;-74
2023/10/10 09:18:26;;;;;;;44.33;34.35;;;22.60;99.90;;;23.22;77.34;101713.88;5074815;28;20512;-73
2023/10/10 09:21:18;;;;;;;42.87;32.53;;;22.90;99.90;;;23.31;76.64;101710.78;5075264;28;20072;-73
2023/10/10 09:24:07;;;;;;;40.67;32.42;;;22.90;99.90;;;23.44;76.40;101728.22;5074801;28;20059;-73
2023/10/10 09:26:37;;;;;;;43.42;34.00;;;23.00;99.90;;;23.50;75.11;101727.94;5074785;28;20073;-74
2023/10/10 09:29:15;;;;;;;39.95;32.28;;;23.10;99.90;;;23.45;74.99;101719.19;5074016;28;20056;-74
2023/10/10 09:31:48;;;;;;;39.08;32.90;;;23.10;99.90;;;23.36;74.83;101727.69;5074678;28;20044;-74
2023/10/10 09:34:22;;;;;;;45.42;32.78;;;23.00;99.90;;;23.43;75.40;101726.47;5073954;28;20473;-73
2023/10/10 09:36:54;;;;;;;39.80;32.17;;;23.00;99.90;;;23.46;75.19;101731.72;5074340;28;20044;-74
2023/10/10 09:39:36;;;;;;;45.50;33.78;;;23.00;99.90;;;23.42;74.91;101735.53;5074135;28;20075;-74
2023/10/10 09:42:22;;;;;;;44.92;33.70;;;23.00;99.90;;;23.37;75.22;101731.25;5074377;28;20048;-74
2023/10/10 09:45:17;;;;;;;43.53;34.08;;;23.00;99.90;;;23.21;75.06;101733.69;5073615;28;20397;-75
2023/10/10 09:47:55;;;;;;;39.75;32.65;;;22.80;99.90;;;23.23;75.72;101731.81;5073508;28;20070;-75
2023/10/10 09:50:35;;;;;;;39.65;32.28;;;22.80;99.90;;;23.15;75.89;101723.19;5073314;28;20044;-74
2023/10/10 09:53:19;;;;;;;43.92;34.00;;;22.70;99.90;;;23.34;76.88;101729.59;5073626;28;20052;-73
2023/10/10 09:55:53;;;;;;;42.45;33.25;;;22.90;99.90;;;23.56;75.94;101726.78;5073490;28;20072;-74
2023/10/10 09:58:28;;;;;;;37.58;31.25;;;23.10;99.90;;;23.81;75.71;101738.28;5073378;28;20064;-74
2023/10/10 10:01:14;;;;;;;39.72;31.08;;;23.40;99.90;;;24.02;74.22;101729.22;5073385;28;20052;-73
2023/10/10 10:03:55;;;;;;;39.40;29.23;;;23.60;99.90;;;24.26;73.40;101721.78;5073168;28;20066;-75
2023/10/10 10:07:12;;;;;;;35.47;29.77;;;23.90;99.90;;;24.48;72.27;101730.63;5073197;28;20490;-75
2023/10/10 10:10:33;;;;;;;38.08;31.02;;;24.10;99.90;;;24.69;71.17;101724.16;5073380;28;20040;-74
2023/10/10 10:13:19;;;;;;;35.95;28.42;;;24.30;99.90;;;24.90;70.79;101728.56;5062661;28;20040;-74
2023/10/10 10:16:19;;;;;;;33.75;27.38;;;24.60;99.90;;;25.00;69.35;101732.56;5073969;28;20098;-74
2023/10/10 10:18:52;;;;;;;34.88;28.02;;;24.70;99.90;;;25.08;68.87;101721.34;5093532;28;20074;-75
2023/10/10 10:21:29;;;;;;;36.53;28.17;;;24.70;99.90;;;25.13;68.38;101720.13;5073853;28;20106;-73
2023/10/10 10:24:15;;;;;;;33.47;27.77;;;24.80;99.90;;;25.32;68.20;101726.38;5072994;28;20041;-74
2023/10/10 10:26:44;;;;;;;38.22;30.23;;;25.00;99.90;;;25.38;67.36;101736.00;5073214;28;20371;-75
2023/10/10 10:29:22;;;;;;;33.55;27.38;;;25.00;99.90;;;24.90;67.61;101650.94;5071853;28;20445;-75
2023/10/10 10:31:57;;;;;;;36.90;29.33;;;25.00;99.90;;;25.39;67.32;101741.41;5073584;28;20051;-75
2023/10/10 10:34:35;;;;;;;34.60;28.20;;;25.00;99.90;;;25.52;67.98;101744.34;5073255;28;20486;-74
2023/10/10 10:37:12;;;;;;;33.65;27.60;;;25.10;99.90;;;25.60;67.68;101737.56;5073117;28;20049;-74
2023/10/10 10:40:21;;;;;;;35.17;27.50;;;25.20;99.90;;;25.70;67.07;101740.66;5073312;28;20056;-74
2023/10/10 10:42:37;;;;;;;35.17;27.17;;;25.30;99.90;;;25.76;66.48;101745.75;5072534;28;20400;-73
2023/10/10 10:45:26;;;;;;;33.10;26.95;;;25.40;99.90;;;25.85;66.34;101742.53;5073657;28;20398;-74
2023/10/10 10:47:59;;;;;;;33.70;27.70;;;25.50;99.90;;;25.78;66.25;101747.41;5073075;28;20373;-75
2023/10/10 10:50:45;;;;;;;34.03;28.33;;;25.50;99.90;;;25.80;66.08;101737.34;5073078;28;20110;-74
2023/10/10 10:53:32;;;;;;;37.05;27.00;;;25.40;99.90;;;25.83;66.12;101739.94;5072923;28;20052;-74
2023/10/10 11:01:42;;;;;;;33.47;26.98;;;25.50;99.90;;;25.83;65.85;101745.34;5071963;28;20082;-73
2023/10/10 11:04:22;;;;;;;32.72;24.38;;;25.50;99.90;;;25.76;66.73;101733.06;5072151;28;20048;-74
2023/10/10 11:06:59;;;;;;;30.52;24.52;;;25.40;99.90;;;25.73;65.63;101730.53;5072432;28;20048;-74
2023/10/10 11:09:34;;;;;;;28.38;22.33;;;25.40;99.90;;;25.77;66.14;101729.41;5071485;28;20080;-75
2023/10/10 11:12:05;;;;;;;30.08;23.60;;;25.30;99.90;;;25.82;66.85;101724.59;5072438;28;20052;-74
2023/10/10 11:14:44;;;;;;;30.17;23.77;;;25.50;99.90;;;25.78;66.26;101709.44;5072944;28;20119;-74
2023/10/10 11:17:18;;;;;;;34.03;25.63;;;25.40;99.90;;;25.88;66.02;101704.41;5072582;28;20215;-74
2023/10/10 11:19:53;;;;;;;36.63;25.45;;;25.50;99.90;;;25.86;65.94;101699.06;5072555;28;20432;-73
2023/10/10 11:22:39;;;;;;;31.80;23.95;;;25.50;99.90;;;25.97;65.75;101703.94;5072513;28;20044;-74
2023/10/10 11:25:11;;;;;;;34.38;23.92;;;25.50;99.90;;;26.00;65.43;101692.03;5072525;28;20058;-75
2023/10/10 11:27:49;;;;;;;31.33;22.30;;;25.60;99.90;;;25.92;65.46;101652.66;5072513;28;20044;-73
2023/10/10 11:30:24;;;;;;;30.85;24.80;;;25.70;99.90;;;26.14;65.00;101687.63;5072306;28;20402;-74
2023/10/10 11:33:16;;;;;;;36.20;24.05;;;25.70;99.90;;;26.33;65.61;101685.63;5072994;28;20070;-74
2023/10/10 11:35:46;;;;;;;27.55;21.23;;;25.90;99.90;;;26.28;64.50;101685.03;5072897;28;20049;-74
2023/10/10 11:38:34;;;;;;;32.65;21.48;;;25.90;99.90;;;26.38;64.25;101671.81;5072741;28;20044;-74
2023/10/10 11:41:08;;;;;;;32.55;22.15;;;26.00;99.90;;;26.39;64.35;101679.84;5071361;28;20147;-74
2023/10/10 11:43:59;;;;;;;31.92;21.48;;;26.10;99.90;;;26.33;63.56;101671.16;5072587;28;20433;-74
2023/10/10 11:46:28;;;;;;;28.65;19.90;;;26.00;99.90;;;26.38;63.98;101666.38;5068058;28;20049;-74
2023/10/10 11:48:57;;;;;;;28.10;20.17;;;26.00;99.90;;;26.45;64.72;101660.50;5071935;28;20041;-67
2023/10/10 11:51:35;;;;;;;26.20;19.83;;;26.10;99.90;;;26.55;64.27;101660.84;5072535;28;20071;-67
2023/10/10 11:54:05;;;;;;;25.92;19.92;;;26.20;99.90;;;26.45;63.44;101657.78;5072298;28;20052;-68
2023/10/10 11:56:35;;;;;;;;;;;26.10;99.90;;;26.52;63.31;101669.16;5073272;28;20033;-68
2023/10/10 11:59:09;;;;;;;31.65;18.95;;;26.20;99.90;;;26.55;63.68;101669.88;5072491;28;19951;-66
2023/10/10 12:01:51;;;;;;;25.67;17.45;;;26.20;99.90;;;26.61;63.34;101672.22;5072298;28;20131;-66
2023/10/10 12:04:32;;;;;;;26.65;17.50;;;26.30;99.90;;;26.69;63.02;101666.34;5071842;28;20123;-70
2023/10/10 12:07:02;;;;;;;;;;;26.40;99.90;;;26.76;62.96;101648.75;5060012;28;20132;-70
2023/10/10 12:09:38;;;;;;;25.25;16.13;;;26.50;99.90;;;26.81;62.26;101660.22;5074442;28;19943;-72
2023/10/10 12:12:07;;;;;;;27.48;16.73;;;26.50;99.90;;;26.78;61.95;101641.41;5075472;28;20048;-70
2023/10/10 12:14:35;;;;;;;25.58;16.30;;;26.50;99.90;;;26.87;62.41;101659.00;5075607;28;20110;-69
2023/10/10 12:17:06;;;;;;;24.60;16.58;;;26.50;99.90;;;26.82;62.00;101642.09;5075747;28;20044;-69
2023/10/10 12:19:43;;;;;;;26.02;16.77;;;26.50;99.90;;;26.85;61.47;101652.78;5075803;28;20114;-69
2023/10/10 12:22:13;;;;;;;21.10;15.57;;;26.50;99.90;;;26.84;61.57;101645.59;5072172;28;20060;-69
2023/10/10 12:24:43;;;;;;;21.58;14.93;;;26.40;99.90;;;26.78;61.65;101638.69;5075678;28;20064;-70
2023/10/10 12:27:13;;;;;;;24.98;16.30;;;26.40;99.90;;;26.66;61.71;101644.78;5075502;28;20441;-70
2023/10/10 12:29:42;;;;;;;22.88;15.52;;;26.30;99.90;;;26.56;61.44;101644.47;5075594;28;20095;-70
2023/10/10 12:32:18;;;;;;;27.50;16.75;;;26.20;99.90;;;26.47;61.75;101635.97;5075636;28;20052;-68
2023/10/10 12:34:49;;;;;;;24.52;14.98;;;26.10;99.90;;;26.34;61.85;101641.25;5075913;28;20044;-68
2023/10/10 12:37:17;;;;;;;23.48;14.45;;;25.90;99.90;;;26.32;62.13;101635.03;5075490;28;20036;-69